Time;durP1;ratioP1;P1;durP2;ratioP2;P2;SDS_P1;SDS_P2;PMS_P1;PMS_P2;Temp;Humidity;BMP_temperature;BMP_pressure;BME280_temperature;BME280_humidity;BME280_pressure;Samples;Min_cycle;Max_cycle;Signal;HPM_P1;HPM_P2
2022/03/24 00:01:59;;;;;;;17.50;11.20;;;;;;;7.93;41.82;102779.91;4959450;28;97621;-82
2022/03/24 00:04:24;;;;;;;19.60;10.67;;;;;;;7.92;41.82;102778.34;4966241;28;97713;-83
2022/03/24 00:06:50;;;;;;;21.17;11.63;;;;;;;7.90;41.58;102769.78;4962886;28;97220;-83
2022/03/24 00:09:15;;;;;;;21.50;12.60;;;;;;;7.83;41.86;102805.53;4964585;28;97005;-83
2022/03/24 00:11:41;;;;;;;17.43;11.30;;;;;;;7.84;41.72;102766.75;4962258;28;97894;-83
2022/03/24 00:14:07;;;;;;;21.00;11.50;;;;;;;7.83;42.16;102764.44;4963877;28;99501;-83
2022/03/24 00:16:33;;;;;;;19.83;12.00;;;;;;;7.74;42.09;102764.22;4965872;28;97080;-83
2022/03/24 00:18:59;;;;;;;19.70;11.70;;;;;;;7.70;42.16;102771.75;4966889;28;97316;-83
2022/03/24 00:21:25;;;;;;;16.40;10.90;;;;;;;7.68;42.36;102763.16;4961298;28;97287;-83
2022/03/24 00:23:51;;;;;;;21.37;12.13;;;;;;;7.63;42.25;102769.91;4964144;28;97408;-82
2022/03/24 00:26:16;;;;;;;17.67;11.40;;;;;;;7.60;42.37;102762.53;4968178;28;97113;-83
2022/03/24 00:28:42;;;;;;;22.90;12.13;;;;;;;7.61;42.05;102760.56;4970655;28;97066;-83
2022/03/24 00:31:08;;;;;;;24.30;11.47;;;;;;;7.58;42.42;102765.69;4972569;28;98455;-83
2022/03/24 00:33:34;;;;;;;21.43;11.60;;;;;;;7.54;42.69;102759.50;4979116;28;96966;-83
2022/03/24 00:35:59;;;;;;;19.13;11.67;;;;;;;7.44;42.51;102765.19;4972420;28;96577;-82
2022/03/24 00:38:26;;;;;;;21.87;12.00;;;;;;;7.38;42.64;102778.56;4977398;28;96930;-82
2022/03/24 00:40:51;;;;;;;22.03;11.93;;;;;;;7.36;42.78;102761.78;4978737;28;100578;-83
2022/03/24 00:43:17;;;;;;;18.93;11.07;;;;;;;7.30;42.84;102798.28;4973585;28;96899;-82
2022/03/24 00:45:42;;;;;;;20.83;11.83;;;;;;;7.21;42.87;102752.28;4962859;28;97251;-82
2022/03/24 00:48:09;;;;;;;18.00;11.00;;;;;;;7.17;42.90;102754.31;4959304;28;96773;-83
2022/03/24 00:50:35;;;;;;;20.00;10.50;;;;;;;7.14;42.88;102757.88;4963783;28;97928;-82
2022/03/24 00:53:01;;;;;;;21.20;12.50;;;;;;;7.05;43.02;102754.13;4956814;28;97315;-83
2022/03/24 00:55:26;;;;;;;21.40;12.50;;;;;;;6.98;43.14;102754.25;4967353;28;97087;-82
2022/03/24 00:57:55;;;;;;;19.00;11.97;;;;;;;6.88;43.31;102753.22;4967616;28;97300;-83
2022/03/24 01:00:25;;;;;;;22.57;12.20;;;;;;;6.86;43.38;102758.34;4964099;28;97508;-83
2022/03/24 01:02:52;;;;;;;21.87;12.37;;;;;;;6.90;43.41;102753.59;4963781;28;97683;-83
2022/03/24 01:05:23;;;;;;;17.90;11.03;;;;;;;6.88;43.34;102750.47;4981214;28;97097;-82
2022/03/24 01:07:49;;;;;;;19.57;11.17;;;;;;;6.88;43.48;102761.44;4965049;28;97336;-82
2022/03/24 01:10:18;;;;;;;17.60;10.67;;;;;;;6.86;43.68;102746.63;4963438;28;98550;-82
2022/03/24 01:12:43;;;;;;;22.33;12.80;;;;;;;6.83;43.52;102748.22;4964970;28;96828;-83
2022/03/24 01:15:10;;;;;;;19.57;11.10;;;;;;;6.80;43.60;102760.00;4963688;28;96725;-82
2022/03/24 01:17:36;;;;;;;19.83;12.13;;;;;;;6.81;43.39;102742.41;4963504;28;96777;-83
2022/03/24 01:20:03;;;;;;;21.40;12.20;;;;;;;6.76;43.76;102734.66;4965123;28;96677;-83
2022/03/24 01:22:29;;;;;;;21.30;11.97;;;;;;;6.72;43.76;102736.69;4961866;28;103242;-82
2022/03/24 01:24:56;;;;;;;20.07;12.07;;;;;;;6.69;43.70;102753.91;4962805;28;97308;-82
2022/03/24 01:27:25;;;;;;;23.70;10.80;;;;;;;6.70;43.61;102733.59;4954708;28;96989;-83
2022/03/24 01:29:51;;;;;;;21.40;12.13;;;;;;;6.66;43.55;102728.16;4960083;28;97555;-82
2022/03/24 01:32:18;;;;;;;18.77;12.00;;;;;;;6.61;44.02;102745.06;4965891;28;97341;-83
2022/03/24 01:34:45;;;;;;;21.93;12.30;;;;;;;6.59;44.19;102735.72;4963618;28;96906;-83
2022/03/24 01:37:11;;;;;;;21.00;11.30;;;;;;;6.52;43.85;102741.28;4963422;28;96991;-83
2022/03/24 01:39:37;;;;;;;18.13;11.50;;;;;;;6.52;43.83;102733.84;4962782;28;98486;-83
2022/03/24 01:42:04;;;;;;;21.47;12.00;;;;;;;6.49;44.33;102733.91;4963540;28;97207;-82
2022/03/24 01:44:29;;;;;;;19.60;12.00;;;;;;;6.46;43.96;102732.00;4965606;28;96961;-82
2022/03/24 01:46:59;;;;;;;20.33;11.07;;;;;;;6.41;44.00;102732.47;4963990;28;96886;-83
2022/03/24 01:49:29;;;;;;;25.00;11.43;;;;;;;6.37;44.45;102720.81;4960037;28;104351;-82
2022/03/24 01:51:56;;;;;;;17.87;11.10;;;;;;;6.34;43.99;102718.88;4967043;28;100364;-83
2022/03/24 01:54:23;;;;;;;18.73;10.67;;;;;;;6.32;43.91;102715.78;4961019;28;97363;-82
2022/03/24 01:56:49;;;;;;;20.63;11.07;;;;;;;6.30;44.22;102726.38;4953613;28;97116;-83
2022/03/24 01:59:16;;;;;;;21.40;12.27;;;;;;;6.27;44.34;102716.28;4963652;28;97471;-82
2022/03/24 02:01:42;;;;;;;21.60;11.80;;;;;;;6.25;44.17;102718.63;4962485;28;97818;-82
2022/03/24 02:04:09;;;;;;;20.40;10.87;;;;;;;6.21;44.20;102715.16;4964020;28;97072;-83
2022/03/24 02:06:35;;;;;;;21.03;10.87;;;;;;;6.16;44.32;102715.66;4961936;28;96952;-82
2022/03/24 02:09:01;;;;;;;18.77;11.50;;;;;;;6.12;44.49;102714.91;4962976;28;96979;-83
2022/03/24 02:11:27;;;;;;;23.10;11.70;;;;;;;6.09;44.55;102716.50;4961481;28;99139;-83
2022/03/24 02:13:54;;;;;;;21.13;12.40;;;;;;;6.09;44.64;102707.53;4963200;28;97147;-82
2022/03/24 02:16:20;;;;;;;19.10;12.03;;;;;;;6.04;44.54;102714.22;4967708;28;97139;-83
2022/03/24 02:18:46;;;;;;;26.33;12.23;;;;;;;5.91;44.46;102714.00;4965857;28;96959;-82
2022/03/24 02:21:16;;;;;;;23.50;12.60;;;;;;;5.85;44.98;102712.88;4965904;28;99357;-82
2022/03/24 02:23:43;;;;;;;21.13;12.97;;;;;;;5.76;44.83;102718.06;4964573;28;97057;-82
2022/03/24 02:26:09;;;;;;;19.73;11.63;;;;;;;5.70;44.92;102716.19;4965231;28;96891;-82
2022/03/24 02:28:35;;;;;;;25.10;12.27;;;;;;;5.64;44.92;102723.25;4966409;28;99717;-83
2022/03/24 02:31:00;;;;;;;17.50;11.30;;;;;;;5.54;45.19;102708.56;4967454;28;97150;-82
2022/03/24 02:33:26;;;;;;;20.03;12.07;;;;;;;5.48;45.16;102726.59;4965923;28;96834;-82
2022/03/24 02:35:52;;;;;;;21.37;11.93;;;;;;;5.47;45.46;102716.06;4965437;28;97210;-82
2022/03/24 02:38:19;;;;;;;19.17;11.70;;;;;;;5.41;45.27;102709.50;4966616;28;98822;-82
2022/03/24 02:40:51;;;;;;;20.83;10.70;;;;;;;5.32;45.56;102729.84;4956690;28;98283;-82
2022/03/24 02:43:20;;;;;;;20.50;11.60;;;;;;;5.30;45.87;102717.78;4965884;28;97989;-83
2022/03/24 02:45:48;;;;;;;18.43;10.97;;;;;;;5.30;45.49;102710.38;4967473;28;97777;-82
2022/03/24 02:48:14;;;;;;;22.60;11.27;;;;;;;5.29;45.50;102722.47;4975156;28;100920;-82
2022/03/24 02:50:40;;;;;;;17.77;10.83;;;;;;;5.30;45.70;102710.38;4966654;28;97690;-82
2022/03/24 02:53:05;;;;;;;16.80;10.40;;;;;;;5.30;45.46;102709.59;4965539;28;97090;-82
2022/03/24 02:55:31;;;;;;;18.23;10.97;;;;;;;5.27;45.51;102703.00;4963154;28;96754;-82
2022/03/24 02:57:56;;;;;;;23.90;11.90;;;;;;;5.20;45.57;102708.53;4972452;28;98188;-82
2022/03/24 03:00:25;;;;;;;19.77;10.80;;;;;;;5.14;45.78;102712.09;4968822;28;98340;-83
2022/03/24 03:02:53;;;;;;;17.37;10.27;;;;;;;5.12;45.58;102709.78;4977024;28;96818;-83
2022/03/24 03:05:19;;;;;;;19.50;11.00;;;;;;;5.09;45.96;102710.56;4973301;28;96821;-82
2022/03/24 03:07:45;;;;;;;18.17;10.30;;;;;;;5.04;45.96;102702.84;4973590;28;98170;-81
2022/03/24 03:10:11;;;;;;;19.90;12.30;;;;;;;4.97;45.88;102702.91;4973970;28;99255;-82
2022/03/24 03:12:37;;;;;;;16.90;10.30;;;;;;;4.98;45.92;102709.13;4980753;28;96748;-82
2022/03/24 03:15:04;;;;;;;21.27;10.60;;;;;;;4.96;46.05;102708.75;4981906;28;96347;-82
2022/03/24 03:17:29;;;;;;;16.60;10.37;;;;;;;4.91;46.06;102706.47;4967952;28;98706;-81
2022/03/24 03:19:55;;;;;;;18.90;10.80;;;;;;;4.95;46.13;102710.72;4970449;28;97379;-81
2022/03/24 03:22:21;;;;;;;19.47;11.23;;;;;;;4.96;45.89;102708.75;4968112;28;97077;-82
2022/03/24 03:24:46;;;;;;;21.60;10.87;;;;;;;4.97;46.08;102713.81;4967124;28;96752;-81
2022/03/24 03:27:12;;;;;;;18.03;10.20;;;;;;;4.97;45.87;102713.81;4961536;28;97359;-82
2022/03/24 03:29:38;;;;;;;15.60;9.77;;;;;;;4.99;46.12;102716.13;4970558;28;97443;-81
2022/03/24 03:32:04;;;;;;;18.37;10.47;;;;;;;4.98;46.02;102714.59;4966588;28;96935;-82
2022/03/24 03:34:30;;;;;;;21.10;10.63;;;;;;;4.95;45.70;102712.66;4970300;28;96749;-83
2022/03/24 03:36:56;;;;;;;20.53;10.83;;;;;;;4.96;45.96;102711.47;4979052;28;97644;-82
2022/03/24 03:39:23;;;;;;;18.77;10.70;;;;;;;4.95;45.92;102716.16;4964620;28;98479;-83
2022/03/24 03:41:49;;;;;;;18.17;10.50;;;;;;;4.92;46.00;102714.25;4957183;28;102257;-81
2022/03/24 03:44:15;;;;;;;21.10;11.07;;;;;;;4.88;46.10;102699.09;4962143;28;96762;-81
2022/03/24 03:46:41;;;;;;;15.77;9.90;;;;;;;4.86;45.87;102706.88;4965527;28;99884;-82
2022/03/24 03:49:10;;;;;;;15.57;9.47;;;;;;;4.87;46.14;102703.75;4967003;28;98319;-82
2022/03/24 03:51:37;;;;;;;17.97;9.50;;;;;;;4.86;46.05;102709.63;4963985;28;96852;-82
2022/03/24 03:54:10;;;;;;;18.20;10.30;;;;;;;4.84;46.18;102698.34;4964119;28;97024;-82
2022/03/24 03:56:36;;;;;;;16.80;9.40;;;;;;;4.81;46.16;102702.63;4981025;28;100531;-82
2022/03/24 03:59:02;;;;;;;17.83;10.00;;;;;;;4.80;46.13;102694.88;4965966;28;97220;-82
2022/03/24 04:01:29;;;;;;;20.30;10.30;;;;;;;4.79;46.01;102698.75;4964749;28;97321;-82
2022/03/24 04:03:55;;;;;;;17.50;9.73;;;;;;;4.75;45.97;102714.38;4965168;28;96930;-84
2022/03/24 04:06:20;;;;;;;16.23;9.63;;;;;;;4.75;46.13;102703.47;4964073;28;98279;-82
2022/03/24 04:08:45;;;;;;;20.40;10.27;;;;;;;4.73;46.18;102705.84;4964364;28;98644;-82
2022/03/24 04:11:12;;;;;;;14.37;9.17;;;;;;;4.68;46.15;102698.06;4966016;28;97129;-82
2022/03/24 04:13:39;;;;;;;15.40;9.07;;;;;;;4.67;46.31;102699.25;4960711;28;103929;-83
2022/03/24 04:16:06;;;;;;;17.97;10.50;;;;;;;4.62;46.35;102702.41;4968042;28;97686;-82
2022/03/24 04:18:32;;;;;;;17.70;8.77;;;;;;;4.57;46.41;102709.84;4965973;28;101748;-82
2022/03/24 04:21:00;;;;;;;18.13;10.53;;;;;;;4.54;46.79;102702.44;4963941;28;97827;-84
2022/03/24 04:23:26;;;;;;;16.73;10.00;;;;;;;4.49;46.37;102716.53;4965130;28;97386;-82
2022/03/24 04:25:51;;;;;;;17.17;9.70;;;;;;;4.49;46.61;102694.72;4965403;28;97291;-83
2022/03/24 04:28:17;;;;;;;11.47;7.87;;;;;;;4.45;46.50;102698.66;4965128;28;98722;-83
2022/03/24 04:30:43;;;;;;;16.57;9.60;;;;;;;4.41;46.63;102704.09;4963145;28;96864;-82
2022/03/24 04:33:09;;;;;;;17.37;10.17;;;;;;;4.35;46.77;102694.03;4977198;28;96716;-82
2022/03/24 04:35:34;;;;;;;18.03;10.53;;;;;;;4.25;46.95;102695.66;4963276;28;97479;-82
2022/03/24 04:38:00;;;;;;;18.87;9.97;;;;;;;4.22;46.83;102701.88;4976303;28;100302;-82
2022/03/24 04:40:26;;;;;;;18.33;10.30;;;;;;;4.20;46.86;102689.84;4963795;28;96784;-82
2022/03/24 04:42:53;;;;;;;15.47;9.30;;;;;;;4.21;47.08;102708.53;4964426;28;97908;-82
2022/03/24 04:45:20;;;;;;;19.27;10.23;;;;;;;4.21;46.92;102694.13;4954918;28;97915;-82
2022/03/24 04:47:47;;;;;;;16.47;10.07;;;;;;;4.15;47.03;102720.25;4958575;28;98014;-82
2022/03/24 04:50:14;;;;;;;15.50;9.10;;;;;;;4.09;47.31;102686.41;4966421;28;97155;-82
2022/03/24 04:52:41;;;;;;;17.63;9.13;;;;;;;4.07;47.10;102689.53;4963671;28;97337;-82
2022/03/24 04:55:07;;;;;;;16.27;9.83;;;;;;;4.09;46.98;102700.81;4962061;28;98846;-82
2022/03/24 04:57:33;;;;;;;18.70;10.17;;;;;;;4.08;47.24;102702.00;4961801;28;97456;-83
2022/03/24 04:59:59;;;;;;;15.53;9.60;;;;;;;4.03;47.10;102688.78;4970942;28;96964;-82
2022/03/24 05:02:25;;;;;;;16.17;10.43;;;;;;;4.06;46.99;102717.94;4958421;28;96941;-83
2022/03/24 05:04:51;;;;;;;20.27;10.33;;;;;;;4.08;47.00;102709.38;4965956;28;96736;-83
2022/03/24 05:07:16;;;;;;;20.03;10.03;;;;;;;4.10;47.04;102735.06;4962367;28;97933;-82
2022/03/24 05:09:42;;;;;;;18.37;10.93;;;;;;;4.12;47.10;102693.78;4965228;28;96957;-83
2022/03/24 05:12:07;;;;;;;19.80;11.40;;;;;;;4.09;46.99;102714.41;4967130;28;97415;-83
2022/03/24 05:14:33;;;;;;;19.83;10.27;;;;;;;4.09;47.23;102698.06;4966808;28;97560;-82
2022/03/24 05:17:09;;;;;;;16.33;10.20;;;;;;;4.09;47.37;102692.63;4934604;28;97046;-83
2022/03/24 05:19:36;;;;;;;13.20;9.33;;;;;;;4.06;47.35;102693.44;4914522;28;96981;-82
2022/03/24 05:22:02;;;;;;;18.70;11.30;;;;;;;4.06;47.17;102698.88;4952375;28;97235;-82
2022/03/24 05:24:27;;;;;;;17.87;10.20;;;;;;;4.06;47.17;102695.38;4962647;28;97524;-83
2022/03/24 05:26:53;;;;;;;19.93;10.67;;;;;;;4.03;47.17;102716.00;4958052;28;100439;-83
2022/03/24 05:29:19;;;;;;;15.63;10.07;;;;;;;4.03;47.23;102707.06;4959792;28;98128;-82
2022/03/24 05:31:45;;;;;;;22.70;10.57;;;;;;;4.02;47.26;102706.28;4975458;28;97367;-83
2022/03/24 05:34:11;;;;;;;23.93;10.90;;;;;;;4.01;47.53;102688.41;4961230;28;97044;-83
2022/03/24 05:36:36;;;;;;;16.10;10.17;;;;;;;4.02;47.59;102695.38;4965842;28;96946;-83
2022/03/24 05:39:02;;;;;;;20.90;10.53;;;;;;;4.04;47.27;102697.72;4961606;28;97012;-83
2022/03/24 05:41:27;;;;;;;15.33;8.93;;;;;;;4.05;47.09;102719.09;4961863;28;101637;-84
2022/03/24 05:44:06;;;;;;;17.20;9.60;;;;;;;4.06;47.38;102701.59;4959345;28;99447;-83
2022/03/24 05:46:38;;;;;;;17.20;9.73;;;;;;;4.04;47.79;102722.25;4967527;28;98899;-83
2022/03/24 05:49:06;;;;;;;17.83;9.83;;;;;;;3.96;47.36;102709.81;4957190;28;96872;-83
2022/03/24 05:51:32;;;;;;;18.13;9.80;;;;;;;3.92;47.59;102720.72;4964926;28;96934;-83
2022/03/24 05:53:57;;;;;;;18.90;10.90;;;;;;;3.90;47.62;102705.94;4964918;28;99684;-83
2022/03/24 05:56:23;;;;;;;15.80;9.83;;;;;;;3.85;47.51;102707.13;4963670;28;99762;-83
2022/03/24 05:58:48;;;;;;;19.00;10.17;;;;;;;3.87;47.66;102718.41;4965705;28;97291;-83
2022/03/24 06:01:15;;;;;;;18.87;9.37;;;;;;;3.87;47.58;102732.03;4966858;28;96723;-83
2022/03/24 06:03:45;;;;;;;16.93;9.90;;;;;;;3.91;47.75;102721.88;4959845;28;97171;-83
2022/03/24 06:06:12;;;;;;;17.90;10.03;;;;;;;3.93;47.74;102727.75;4963834;28;96869;-83
2022/03/24 06:08:40;;;;;;;14.67;10.20;;;;;;;3.99;47.59;102709.03;4964149;28;97228;-83
2022/03/24 06:11:06;;;;;;;22.33;10.77;;;;;;;3.98;47.63;102708.25;4964696;28;97138;-84
2022/03/24 06:13:32;;;;;;;18.80;10.40;;;;;;;3.99;47.79;102704.38;4964619;28;97576;-84
2022/03/24 06:16:01;;;;;;;17.63;9.30;;;;;;;4.07;47.93;102705.88;4963568;28;97252;-82
2022/03/24 06:18:27;;;;;;;19.37;10.57;;;;;;;4.16;47.55;102713.59;4962311;28;97179;-83
2022/03/24 06:20:53;;;;;;;19.60;9.97;;;;;;;4.20;47.57;102712.41;4962718;28;97002;-83
2022/03/24 06:23:18;;;;;;;15.83;9.87;;;;;;;4.29;47.77;102709.25;4965950;28;98113;-83
2022/03/24 06:25:44;;;;;;;16.50;10.20;;;;;;;4.32;47.73;102709.25;4962072;28;100244;-84
2022/03/24 06:28:09;;;;;;;18.30;10.40;;;;;;;4.41;47.51;102719.69;4964357;28;96883;-83
2022/03/24 06:30:34;;;;;;;20.10;9.87;;;;;;;4.46;48.04;102728.22;4961894;28;96794;-83
2022/03/24 06:33:00;;;;;;;16.63;10.07;;;;;;;4.51;47.91;102722.34;4962811;28;98955;-84
2022/03/24 06:35:25;;;;;;;19.60;10.40;;;;;;;4.55;47.67;102725.81;4959736;28;96810;-84
2022/03/24 06:37:54;;;;;;;16.27;9.23;;;;;;;4.56;47.77;102716.44;4963272;28;97548;-83
2022/03/24 06:40:20;;;;;;;19.20;9.50;;;;;;;4.63;47.61;102720.31;4958743;28;97019;-84
2022/03/24 06:42:46;;;;;;;20.40;10.70;;;;;;;4.69;47.92;102718.72;4963922;28;97807;-83
2022/03/24 06:45:14;;;;;;;17.27;11.03;;;;;;;4.76;47.63;102715.94;4962949;28;98307;-84
2022/03/24 06:47:40;;;;;;;18.10;11.13;;;;;;;4.81;47.72;102732.63;4936845;28;97737;-83
2022/03/24 06:50:10;;;;;;;17.30;9.37;;;;;;;4.89;47.32;102728.66;4938211;28;97428;-83
2022/03/24 06:52:35;;;;;;;14.70;9.20;;;;;;;4.94;47.59;102719.28;4933028;28;97918;-84
2022/03/24 06:55:01;;;;;;;18.07;9.43;;;;;;;5.00;47.57;102728.59;4937244;28;98486;-83
2022/03/24 06:57:27;;;;;;;17.37;10.47;;;;;;;5.06;47.47;102732.44;4921500;28;96677;-83
2022/03/24 06:59:52;;;;;;;21.37;9.10;;;;;;;5.13;47.69;102735.88;4938484;28;97435;-83
2022/03/24 07:02:18;;;;;;;20.87;10.83;;;;;;;5.19;47.75;102736.22;4955857;28;100046;-83
2022/03/24 07:04:43;;;;;;;24.83;10.60;;;;;;;5.24;47.85;102731.09;4940672;28;96825;-83
2022/03/24 07:07:08;;;;;;;14.30;8.70;;;;;;;5.37;47.96;102739.56;4941717;28;96953;-83
2022/03/24 07:09:35;;;;;;;18.13;10.10;;;;;;;5.49;48.07;102752.69;4941313;28;96826;-83
2022/03/24 07:12:01;;;;;;;17.77;10.70;;;;;;;5.58;47.72;102738.56;4950615;28;100904;-83
2022/03/24 07:14:26;;;;;;;16.43;10.03;;;;;;;5.65;47.71;102758.38;4934525;28;97715;-84
2022/03/24 07:16:52;;;;;;;15.07;9.20;;;;;;;5.74;47.80;102742.28;4934726;28;98138;-82
2022/03/24 07:19:19;;;;;;;16.70;9.80;;;;;;;5.81;47.72;102739.44;4944263;28;96994;-83
2022/03/24 07:21:45;;;;;;;14.97;9.47;;;;;;;5.90;47.83;102750.69;4938644;28;98442;-83
2022/03/24 07:24:10;;;;;;;19.30;10.47;;;;;;;5.96;47.90;102751.03;4931151;28;101538;-83
2022/03/24 07:26:36;;;;;;;18.87;10.50;;;;;;;6.05;47.82;102743.88;4939263;28;97103;-84
2022/03/24 07:29:02;;;;;;;17.83;10.07;;;;;;;6.13;47.83;102749.25;4931540;28;96857;-83
2022/03/24 07:31:28;;;;;;;15.13;9.03;;;;;;;6.23;48.04;102764.72;4941231;28;99853;-82
2022/03/24 07:33:56;;;;;;;21.97;10.37;;;;;;;6.24;47.98;102731.53;4930846;28;96973;-83
2022/03/24 07:36:22;;;;;;;19.10;10.00;;;;;;;6.45;47.94;102764.03;4938353;28;96894;-83
2022/03/24 07:38:51;;;;;;;21.83;11.27;;;;;;;6.50;48.00;102736.22;4960349;28;97265;-83
2022/03/24 07:41:17;;;;;;;22.93;10.90;;;;;;;6.69;48.18;102753.91;4967331;28;97036;-82
2022/03/24 07:43:42;;;;;;;19.40;11.27;;;;;;;6.87;47.96;102753.63;4965314;28;99503;-82
2022/03/24 07:46:08;;;;;;;21.60;11.17;;;;;;;7.01;48.01;102751.44;4961051;28;96673;-83
2022/03/24 07:48:34;;;;;;;18.67;10.27;;;;;;;7.22;48.17;102761.28;4965629;28;97561;-82
2022/03/24 07:51:00;;;;;;;19.83;10.47;;;;;;;7.37;48.05;102749.66;4965751;28;100701;-82
2022/03/24 07:53:28;;;;;;;21.70;12.20;;;;;;;7.61;48.10;102752.34;4967638;28;96750;-83
2022/03/24 07:55:56;;;;;;;21.97;12.17;;;;;;;7.82;47.85;102760.16;4965944;28;96836;-83
2022/03/24 07:58:22;;;;;;;19.80;11.30;;;;;;;7.98;47.60;102761.00;4964693;28;96878;-82
2022/03/24 08:00:47;;;;;;;21.00;11.13;;;;;;;8.19;47.42;102765.28;4982146;28;98340;-82
2022/03/24 08:03:16;;;;;;;21.43;11.40;;;;;;;8.39;47.27;102763.28;4964572;28;100067;-82
2022/03/24 08:05:42;;;;;;;24.00;12.60;;;;;;;8.58;46.88;102757.00;4965687;28;98739;-82
2022/03/24 08:08:12;;;;;;;23.33;12.70;;;;;;;8.77;46.57;102753.41;4966282;28;97070;-82
2022/03/24 08:10:39;;;;;;;20.77;11.57;;;;;;;8.98;46.81;102761.13;4957769;28;100556;-82
2022/03/24 08:13:06;;;;;;;23.57;12.57;;;;;;;9.15;46.62;102748.16;4958767;28;97384;-82
2022/03/24 08:15:32;;;;;;;22.07;12.37;;;;;;;9.36;46.69;102760.56;4965336;28;97220;-81
2022/03/24 08:17:57;;;;;;;19.40;12.13;;;;;;;9.52;46.25;102777.03;4965868;28;97776;-83
2022/03/24 08:20:23;;;;;;;20.47;11.50;;;;;;;9.71;46.05;102789.84;4965969;28;98057;-83
2022/03/24 08:22:49;;;;;;;20.97;12.30;;;;;;;9.88;46.00;102763.84;4965745;28;99317;-82
2022/03/24 08:25:15;;;;;;;19.33;11.57;;;;;;;10.01;45.60;102764.63;4961528;28;96825;-83
2022/03/24 08:27:40;;;;;;;22.80;12.50;;;;;;;10.20;45.42;102763.72;4966324;28;96871;-83
2022/03/24 08:30:07;;;;;;;20.77;12.03;;;;;;;10.40;45.34;102772.53;4965659;28;97557;-82
2022/03/24 08:32:33;;;;;;;17.53;11.40;;;;;;;10.63;45.31;102765.19;4965674;28;97622;-82
2022/03/24 08:34:58;;;;;;;17.60;11.50;;;;;;;10.83;45.15;102763.75;4961872;28;97373;-83
2022/03/24 08:37:24;;;;;;;18.70;11.10;;;;;;;11.07;45.03;102772.41;4974626;28;97036;-84
2022/03/24 08:39:49;;;;;;;23.50;11.70;;;;;;;11.29;44.27;102768.47;4965691;28;98532;-83
2022/03/24 08:42:14;;;;;;;22.37;12.37;;;;;;;11.58;44.21;102781.28;4960244;28;100146;-83
2022/03/24 08:44:40;;;;;;;20.40;11.90;;;;;;;11.85;43.93;102774.03;4963247;28;96830;-80
2022/03/24 08:47:06;;;;;;;18.13;11.30;;;;;;;12.16;43.75;102770.53;4962463;28;96981;-83
2022/03/24 08:49:32;;;;;;;19.77;10.60;;;;;;;12.48;43.12;102778.34;4962896;28;97980;-81
2022/03/24 08:51:58;;;;;;;18.73;12.07;;;;;;;12.73;42.88;102780.91;4960377;28;97837;-82
2022/03/24 08:54:23;;;;;;;19.70;12.23;;;;;;;13.07;42.58;102786.25;4976700;28;97089;-82
2022/03/24 08:56:49;;;;;;;21.17;11.90;;;;;;;13.39;42.35;102760.78;4962685;28;96945;-82
2022/03/24 08:59:14;;;;;;;17.80;11.63;;;;;;;13.70;41.95;102776.44;4965359;28;96662;-82
2022/03/24 09:01:41;;;;;;;17.03;10.83;;;;;;;13.97;42.02;102781.97;4965463;28;96886;-81
2022/03/24 09:04:07;;;;;;;17.60;10.40;;;;;;;14.17;41.05;102768.41;4964993;28;96824;-82
2022/03/24 09:06:33;;;;;;;21.53;11.20;;;;;;;14.39;41.16;102774.50;4965366;28;96807;-82
2022/03/24 09:08:58;;;;;;;21.20;10.07;;;;;;;14.66;40.94;102790.22;4964028;28;99492;-81
2022/03/24 09:11:24;;;;;;;16.63;10.80;;;;;;;14.83;40.57;102789.38;4965432;28;96995;-83
2022/03/24 09:13:50;;;;;;;20.20;11.60;;;;;;;15.05;40.17;102789.09;4967078;28;98420;-83
2022/03/24 09:16:16;;;;;;;16.03;10.70;;;;;;;15.27;40.14;102780.47;4961877;28;97227;-83
2022/03/24 09:18:42;;;;;;;17.60;11.20;;;;;;;15.43;39.46;102780.06;4976847;28;96755;-83
2022/03/24 09:21:09;;;;;;;17.60;11.53;;;;;;;15.59;39.58;102787.97;4978720;28;96819;-83
2022/03/24 09:23:35;;;;;;;20.13;12.80;;;;;;;15.69;39.06;102784.66;4959694;28;97109;-84
2022/03/24 09:26:01;;;;;;;20.80;12.27;;;;;;;15.73;39.12;102781.66;4964173;28;97312;-83
2022/03/24 09:28:27;;;;;;;18.40;12.20;;;;;;;15.93;39.04;102786.56;4964157;28;97860;-82
2022/03/24 09:30:55;;;;;;;21.33;11.40;;;;;;;16.13;38.87;102781.13;4962252;28;97261;-83
2022/03/24 09:33:21;;;;;;;16.10;10.93;;;;;;;16.29;38.74;102775.09;4966102;28;96864;-82
2022/03/24 09:35:48;;;;;;;17.33;12.23;;;;;;;16.39;38.18;102770.94;4974041;28;97092;-82
2022/03/24 09:38:13;;;;;;;17.73;11.53;;;;;;;16.51;38.31;102774.69;4968454;28;99031;-83
2022/03/24 09:40:40;;;;;;;17.63;12.20;;;;;;;16.62;38.50;102772.09;4964500;28;99503;-82
2022/03/24 09:43:06;;;;;;;21.97;12.53;;;;;;;16.74;38.29;102784.91;4976137;28;97093;-83
2022/03/24 09:45:32;;;;;;;19.13;12.70;;;;;;;16.87;38.22;102771.44;4961134;28;96747;-81
2022/03/24 09:47:57;;;;;;;20.10;12.67;;;;;;;16.92;37.96;102762.41;4962322;28;97745;-83
2022/03/24 09:50:24;;;;;;;16.40;12.20;;;;;;;17.01;37.79;102773.41;4963903;28;97287;-83
2022/03/24 09:52:52;;;;;;;20.90;13.90;;;;;;;17.02;37.07;102772.13;4964964;28;97075;-83
2022/03/24 09:55:19;;;;;;;25.60;12.20;;;;;;;16.96;37.31;102810.25;4960860;28;96934;-82
2022/03/24 09:57:47;;;;;;;17.40;11.73;;;;;;;17.08;37.29;102764.66;4962888;28;98113;-82
2022/03/24 10:00:13;;;;;;;17.03;11.30;;;;;;;17.22;37.17;102780.50;4965037;28;98493;-82
2022/03/24 10:02:39;;;;;;;22.00;12.60;;;;;;;17.25;36.57;102766.34;4963368;28;96908;-82
2022/03/24 10:05:06;;;;;;;18.87;12.00;;;;;;;17.27;36.69;102774.25;4963294;28;96936;-83
2022/03/24 10:07:46;;;;;;;18.90;13.43;;;;;;;17.26;33.21;102775.47;4962569;28;98912;-82
2022/03/24 10:10:24;;;;;;;19.33;12.70;;;;;;;17.20;34.85;102767.06;4963755;28;102013;-82
2022/03/24 10:12:50;;;;;;;21.00;13.60;;;;;;;17.24;36.03;102766.84;4973568;28;98317;-83
2022/03/24 10:15:16;;;;;;;15.27;11.20;;;;;;;17.26;35.97;102756.00;4962601;28;96932;-82
2022/03/24 10:17:53;;;;;;;17.40;12.20;;;;;;;17.38;35.09;102760.47;4964050;28;97616;-81
2022/03/24 10:20:19;;;;;;;22.77;12.50;;;;;;;17.48;35.96;102756.25;4987982;28;101378;-81
2022/03/24 10:22:58;;;;;;;16.27;11.70;;;;;;;17.60;35.02;102751.63;4966530;28;96943;-82
2022/03/24 10:25:29;;;;;;;18.70;11.30;;;;;;;17.63;35.36;102748.59;4965415;28;96948;-82
2022/03/24 10:28:02;;;;;;;16.90;10.77;;;;;;;17.65;33.29;102748.88;4964343;28;103826;-82
2022/03/24 10:30:27;;;;;;;19.80;11.97;;;;;;;17.61;35.23;102751.13;4962694;28;104442;-82
2022/03/24 10:32:55;;;;;;;17.73;11.30;;;;;;;17.65;35.52;102757.22;4961703;28;96769;-80
2022/03/24 10:35:20;;;;;;;18.03;11.67;;;;;;;17.74;35.18;102743.16;4964292;28;96919;-82
2022/03/24 10:37:52;;;;;;;18.87;11.53;;;;;;;17.81;34.54;102739.94;4978237;28;98650;-82
2022/03/24 10:40:18;;;;;;;17.93;10.83;;;;;;;17.86;34.81;102744.03;4966501;28;97521;-83
2022/03/24 10:42:43;;;;;;;15.43;11.00;;;;;;;17.94;34.91;102729.16;4967612;28;96616;-83
2022/03/24 10:45:11;;;;;;;14.07;10.67;;;;;;;18.02;34.75;102740.59;4968599;28;96698;-82
2022/03/24 10:47:37;;;;;;;19.20;12.03;;;;;;;18.06;34.63;102734.81;4965845;28;97291;-82
2022/03/24 10:50:20;;;;;;;17.60;11.80;;;;;;;18.04;33.06;102742.91;4967881;28;97482;-81
2022/03/24 10:52:45;;;;;;;19.00;12.17;;;;;;;18.05;34.35;102744.44;4965577;28;96696;-82
2022/03/24 10:55:12;;;;;;;18.17;11.90;;;;;;;18.03;34.03;102735.81;4967014;28;96912;-81
2022/03/24 10:57:39;;;;;;;23.17;13.27;;;;;;;18.04;33.56;102740.13;4960927;28;99506;-82
2022/03/24 11:00:05;;;;;;;18.73;11.60;;;;;;;18.10;33.72;102736.13;4968848;28;96727;-83
2022/03/24 11:02:32;;;;;;;15.57;11.50;;;;;;;18.15;33.50;102743.75;4966413;28;96768;-82
2022/03/24 11:05:02;;;;;;;16.03;11.33;;;;;;;18.26;33.12;102759.81;4963108;28;96629;-83
2022/03/24 11:07:28;;;;;;;16.47;11.77;;;;;;;18.45;33.01;102733.13;4965573;28;100765;-83
2022/03/24 11:09:53;;;;;;;15.23;9.60;;;;;;;18.68;33.54;102718.03;4964790;28;97224;-82
2022/03/24 11:12:25;;;;;;;14.70;10.20;;;;;;;18.95;32.48;102722.22;4961687;28;96768;-83
2022/03/24 11:14:54;;;;;;;14.57;9.53;;;;;;;19.26;32.74;102722.84;4966155;28;96866;-83